CheckWX is a tool to help pilots better visualize weather data.  It is not intended as a substitute for an official pre-flight weather briefing.

13:22:13 UTC

KELN METAR
Bowers Field Airport
Ellensburg, Washington, USA
Current

29 mins ago

KELN 181253Z AUTO 32015KT 10SM CLR 16/09 A2981 RMK AO2 SLP084 T01610094 $
Observed
Aug-18 @ 12:53 UTC
Wind
  • 320° at 15 KTS
Visibility
10 SM
Flight Rules
VFR
Cloud Levels
  • Clear skies
Temperature
16°C / 61°F
Dewpoint
C / 48°F
Humidity
63%
Altimeter
29.81" Hg
Pressure
1009.52 hPa
Previous

1 hour ago

KELN 181153Z AUTO 32015KT 10SM CLR 16/09 A2980 RMK AO2 SLP082 T01610089 10178 20161 56007 $
Observed
Aug-18 @ 11:53 UTC
Wind
  • 320° at 15 KTS
Visibility
10 SM
Flight Rules
VFR
Cloud Levels
  • Clear skies
Temperature
16°C / 61°F
Dewpoint
C / 48°F
Humidity
63%
Altimeter
29.8" Hg
Pressure
1009.12 hPa
Previous

2 hours ago

KELN 181053Z AUTO 30012G21KT 10SM CLR 16/09 A2981 RMK AO2 SLP083 T01610089 $
Observed
Aug-18 @ 10:53 UTC
Wind
  • 300° at 12 KTS
  • Gusting to 21 KTS
Visibility
10 SM
Flight Rules
VFR
Cloud Levels
  • Clear skies
Temperature
16°C / 61°F
Dewpoint
C / 48°F
Humidity
63%
Altimeter
29.81" Hg
Pressure
1009.52 hPa